sensor_id;sensor_type;location;lat;lon;timestamp;P1;durP1;ratioP1;P2;durP2;ratioP2
82671;SDS011;72378;52.468;13.432;2023-10-31T00:00:09;8.02;;;3.10;;
82671;SDS011;72378;52.468;13.432;2023-10-31T00:02:36;7.38;;;2.90;;
82671;SDS011;72378;52.468;13.432;2023-10-31T00:05:02;7.32;;;3.15;;
82671;SDS011;72378;52.468;13.432;2023-10-31T00:09:56;6.80;;;2.78;;
82671;SDS011;72378;52.468;13.432;2023-10-31T00:12:22;8.15;;;3.10;;
82671;SDS011;72378;52.468;13.432;2023-10-31T00:14:48;6.38;;;3.20;;
82671;SDS011;72378;52.468;13.432;2023-10-31T00:17:15;8.05;;;2.80;;
82671;SDS011;72378;52.468;13.432;2023-10-31T00:19:41;7.78;;;2.80;;
82671;SDS011;72378;52.468;13.432;2023-10-31T00:22:07;9.60;;;3.20;;
82671;SDS011;72378;52.468;13.432;2023-10-31T00:24:33;7.88;;;3.45;;
82671;SDS011;72378;52.468;13.432;2023-10-31T00:27:01;8.10;;;3.20;;
82671;SDS011;72378;52.468;13.432;2023-10-31T00:29:27;9.20;;;3.33;;
82671;SDS011;72378;52.468;13.432;2023-10-31T00:31:53;12.80;;;5.43;;
82671;SDS011;72378;52.468;13.432;2023-10-31T00:34:20;10.48;;;4.30;;
82671;SDS011;72378;52.468;13.432;2023-10-31T00:36:46;8.55;;;3.90;;
82671;SDS011;72378;52.468;13.432;2023-10-31T00:39:12;10.50;;;4.13;;
82671;SDS011;72378;52.468;13.432;2023-10-31T00:41:39;9.80;;;3.72;;
82671;SDS011;72378;52.468;13.432;2023-10-31T00:44:06;10.23;;;3.38;;
82671;SDS011;72378;52.468;13.432;2023-10-31T00:46:32;7.75;;;3.42;;
82671;SDS011;72378;52.468;13.432;2023-10-31T00:48:59;10.23;;;3.50;;
82671;SDS011;72378;52.468;13.432;2023-10-31T00:51:25;10.60;;;4.03;;
82671;SDS011;72378;52.468;13.432;2023-10-31T00:53:51;9.57;;;3.60;;
82671;SDS011;72378;52.468;13.432;2023-10-31T00:56:17;10.77;;;4.13;;
82671;SDS011;72378;52.468;13.432;2023-10-31T00:58:43;9.23;;;4.03;;
82671;SDS011;72378;52.468;13.432;2023-10-31T01:01:10;10.25;;;3.88;;
82671;SDS011;72378;52.468;13.432;2023-10-31T01:03:37;10.93;;;4.15;;
82671;SDS011;72378;52.468;13.432;2023-10-31T01:06:03;10.00;;;4.15;;
82671;SDS011;72378;52.468;13.432;2023-10-31T01:08:29;11.75;;;4.65;;
82671;SDS011;72378;52.468;13.432;2023-10-31T01:10:55;9.05;;;4.13;;
82671;SDS011;72378;52.468;13.432;2023-10-31T01:13:22;11.52;;;4.72;;
82671;SDS011;72378;52.468;13.432;2023-10-31T01:15:48;9.70;;;3.85;;
82671;SDS011;72378;52.468;13.432;2023-10-31T01:18:15;9.05;;;3.78;;
82671;SDS011;72378;52.468;13.432;2023-10-31T01:20:41;9.35;;;4.10;;
82671;SDS011;72378;52.468;13.432;2023-10-31T01:23:08;9.95;;;4.28;;
82671;SDS011;72378;52.468;13.432;2023-10-31T01:25:34;11.40;;;4.60;;
82671;SDS011;72378;52.468;13.432;2023-10-31T01:28:00;9.90;;;4.00;;
82671;SDS011;72378;52.468;13.432;2023-10-31T01:30:26;9.07;;;4.20;;
82671;SDS011;72378;52.468;13.432;2023-10-31T01:32:52;11.63;;;5.45;;
82671;SDS011;72378;52.468;13.432;2023-10-31T01:35:19;8.95;;;3.83;;
82671;SDS011;72378;52.468;13.432;2023-10-31T01:37:46;13.48;;;4.47;;
82671;SDS011;72378;52.468;13.432;2023-10-31T01:40:12;9.10;;;3.97;;
82671;SDS011;72378;52.468;13.432;2023-10-31T01:42:38;10.30;;;4.05;;
82671;SDS011;72378;52.468;13.432;2023-10-31T01:45:05;9.13;;;3.95;;
82671;SDS011;72378;52.468;13.432;2023-10-31T01:47:31;10.32;;;3.97;;
82671;SDS011;72378;52.468;13.432;2023-10-31T01:49:58;8.98;;;3.75;;
82671;SDS011;72378;52.468;13.432;2023-10-31T01:52:25;9.05;;;4.40;;
82671;SDS011;72378;52.468;13.432;2023-10-31T01:54:52;10.52;;;4.88;;
82671;SDS011;72378;52.468;13.432;2023-10-31T01:57:18;11.23;;;5.78;;
82671;SDS011;72378;52.468;13.432;2023-10-31T01:59:44;12.90;;;6.00;;
82671;SDS011;72378;52.468;13.432;2023-10-31T02:02:10;13.80;;;5.68;;
82671;SDS011;72378;52.468;13.432;2023-10-31T02:04:37;10.90;;;4.63;;
82671;SDS011;72378;52.468;13.432;2023-10-31T02:07:03;11.65;;;5.07;;
82671;SDS011;72378;52.468;13.432;2023-10-31T02:09:30;11.73;;;5.28;;
82671;SDS011;72378;52.468;13.432;2023-10-31T02:11:57;10.38;;;4.97;;
82671;SDS011;72378;52.468;13.432;2023-10-31T02:14:23;11.15;;;4.95;;
82671;SDS011;72378;52.468;13.432;2023-10-31T02:16:50;8.82;;;4.47;;
82671;SDS011;72378;52.468;13.432;2023-10-31T02:19:16;11.73;;;5.40;;
82671;SDS011;72378;52.468;13.432;2023-10-31T02:21:46;10.73;;;4.50;;
82671;SDS011;72378;52.468;13.432;2023-10-31T02:24:12;11.18;;;4.95;;
82671;SDS011;72378;52.468;13.432;2023-10-31T02:26:38;13.27;;;4.90;;
82671;SDS011;72378;52.468;13.432;2023-10-31T02:29:04;11.02;;;5.10;;
82671;SDS011;72378;52.468;13.432;2023-10-31T02:31:31;12.75;;;4.72;;
82671;SDS011;72378;52.468;13.432;2023-10-31T02:33:57;12.75;;;4.22;;
82671;SDS011;72378;52.468;13.432;2023-10-31T02:36:24;10.73;;;4.32;;
82671;SDS011;72378;52.468;13.432;2023-10-31T02:38:51;10.13;;;4.60;;
82671;SDS011;72378;52.468;13.432;2023-10-31T02:41:18;11.75;;;4.30;;
82671;SDS011;72378;52.468;13.432;2023-10-31T02:43:44;10.45;;;4.57;;
82671;SDS011;72378;52.468;13.432;2023-10-31T02:46:10;9.90;;;4.53;;
82671;SDS011;72378;52.468;13.432;2023-10-31T02:51:04;10.88;;;4.22;;
82671;SDS011;72378;52.468;13.432;2023-10-31T02:53:30;11.82;;;4.50;;
82671;SDS011;72378;52.468;13.432;2023-10-31T02:55:58;11.30;;;4.75;;
82671;SDS011;72378;52.468;13.432;2023-10-31T02:58:24;13.05;;;6.70;;
82671;SDS011;72378;52.468;13.432;2023-10-31T03:00:50;17.60;;;6.80;;
82671;SDS011;72378;52.468;13.432;2023-10-31T03:03:16;12.65;;;5.32;;
82671;SDS011;72378;52.468;13.432;2023-10-31T03:05:42;11.00;;;5.10;;
82671;SDS011;72378;52.468;13.432;2023-10-31T03:08:09;16.90;;;6.80;;
82671;SDS011;72378;52.468;13.432;2023-10-31T03:10:37;11.65;;;4.82;;
82671;SDS011;72378;52.468;13.432;2023-10-31T03:13:05;11.63;;;5.15;;
82671;SDS011;72378;52.468;13.432;2023-10-31T03:15:31;11.60;;;5.65;;
82671;SDS011;72378;52.468;13.432;2023-10-31T03:17:57;12.82;;;5.13;;
82671;SDS011;72378;52.468;13.432;2023-10-31T03:20:23;10.93;;;5.85;;
82671;SDS011;72378;52.468;13.432;2023-10-31T03:22:49;14.10;;;6.22;;
82671;SDS011;72378;52.468;13.432;2023-10-31T03:25:15;12.32;;;5.35;;
82671;SDS011;72378;52.468;13.432;2023-10-31T03:27:42;15.20;;;6.97;;
82671;SDS011;72378;52.468;13.432;2023-10-31T03:30:10;15.20;;;6.63;;
82671;SDS011;72378;52.468;13.432;2023-10-31T03:32:36;11.68;;;6.15;;
82671;SDS011;72378;52.468;13.432;2023-10-31T03:35:02;12.25;;;5.32;;
82671;SDS011;72378;52.468;13.432;2023-10-31T03:37:28;14.30;;;5.90;;
82671;SDS011;72378;52.468;13.432;2023-10-31T03:39:55;13.25;;;6.90;;
82671;SDS011;72378;52.468;13.432;2023-10-31T03:42:21;12.07;;;6.07;;
82671;SDS011;72378;52.468;13.432;2023-10-31T03:44:47;15.73;;;7.43;;
82671;SDS011;72378;52.468;13.432;2023-10-31T03:47:14;14.40;;;7.15;;
82671;SDS011;72378;52.468;13.432;2023-10-31T03:49:40;14.18;;;6.78;;
82671;SDS011;72378;52.468;13.432;2023-10-31T03:52:07;11.93;;;6.07;;
82671;SDS011;72378;52.468;13.432;2023-10-31T03:54:33;12.32;;;5.57;;
82671;SDS011;72378;52.468;13.432;2023-10-31T03:56:59;14.65;;;6.30;;
82671;SDS011;72378;52.468;13.432;2023-10-31T03:59:25;15.23;;;7.13;;
82671;SDS011;72378;52.468;13.432;2023-10-31T04:01:51;14.98;;;7.07;;
82671;SDS011;72378;52.468;13.432;2023-10-31T04:04:18;13.48;;;6.45;;
82671;SDS011;72378;52.468;13.432;2023-10-31T04:06:45;15.30;;;7.82;;
82671;SDS011;72378;52.468;13.432;2023-10-31T04:09:11;12.23;;;6.65;;
82671;SDS011;72378;52.468;13.432;2023-10-31T04:11:37;12.68;;;6.28;;
82671;SDS011;72378;52.468;13.432;2023-10-31T04:14:04;15.52;;;6.88;;
82671;SDS011;72378;52.468;13.432;2023-10-31T04:16:30;13.88;;;5.97;;
82671;SDS011;72378;52.468;13.432;2023-10-31T04:18:56;9.98;;;5.57;;
82671;SDS011;72378;52.468;13.432;2023-10-31T04:21:24;12.35;;;5.93;;
82671;SDS011;72378;52.468;13.432;2023-10-31T04:23:50;11.73;;;5.65;;
82671;SDS011;72378;52.468;13.432;2023-10-31T04:26:16;12.00;;;5.63;;
82671;SDS011;72378;52.468;13.432;2023-10-31T04:28:42;14.02;;;6.68;;
82671;SDS011;72378;52.468;13.432;2023-10-31T04:31:08;13.85;;;6.30;;
82671;SDS011;72378;52.468;13.432;2023-10-31T04:33:34;11.95;;;6.32;;
82671;SDS011;72378;52.468;13.432;2023-10-31T04:36:01;12.82;;;6.75;;
82671;SDS011;72378;52.468;13.432;2023-10-31T04:38:29;15.40;;;7.13;;
82671;SDS011;72378;52.468;13.432;2023-10-31T04:40:55;13.10;;;7.05;;
82671;SDS011;72378;52.468;13.432;2023-10-31T04:43:21;14.32;;;6.90;;
82671;SDS011;72378;52.468;13.432;2023-10-31T04:45:47;13.77;;;6.60;;
82671;SDS011;72378;52.468;13.432;2023-10-31T04:48:13;16.40;;;8.15;;
82671;SDS011;72378;52.468;13.432;2023-10-31T04:50:39;13.98;;;7.13;;
82671;SDS011;72378;52.468;13.432;2023-10-31T04:53:06;17.05;;;7.55;;
82671;SDS011;72378;52.468;13.432;2023-10-31T04:55:34;18.05;;;9.35;;
82671;SDS011;72378;52.468;13.432;2023-10-31T04:58:00;16.48;;;7.00;;
82671;SDS011;72378;52.468;13.432;2023-10-31T05:00:26;15.15;;;7.60;;
82671;SDS011;72378;52.468;13.432;2023-10-31T05:02:52;15.23;;;7.43;;
82671;SDS011;72378;52.468;13.432;2023-10-31T05:05:18;13.88;;;6.90;;
82671;SDS011;72378;52.468;13.432;2023-10-31T05:07:45;15.60;;;7.65;;
82671;SDS011;72378;52.468;13.432;2023-10-31T05:10:11;13.10;;;7.38;;
82671;SDS011;72378;52.468;13.432;2023-10-31T05:12:39;15.05;;;7.63;;
82671;SDS011;72378;52.468;13.432;2023-10-31T05:15:05;16.65;;;7.80;;
82671;SDS011;72378;52.468;13.432;2023-10-31T05:17:32;14.40;;;7.30;;
82671;SDS011;72378;52.468;13.432;2023-10-31T05:19:58;15.10;;;7.05;;
82671;SDS011;72378;52.468;13.432;2023-10-31T05:22:24;13.88;;;7.13;;
82671;SDS011;72378;52.468;13.432;2023-10-31T05:24:50;15.10;;;8.25;;
82671;SDS011;72378;52.468;13.432;2023-10-31T05:27:16;13.38;;;7.03;;
82671;SDS011;72378;52.468;13.432;2023-10-31T05:29:44;15.07;;;7.97;;
82671;SDS011;72378;52.468;13.432;2023-10-31T05:32:10;16.45;;;7.47;;
82671;SDS011;72378;52.468;13.432;2023-10-31T05:34:36;13.60;;;7.05;;
82671;SDS011;72378;52.468;13.432;2023-10-31T05:37:02;14.70;;;8.18;;
82671;SDS011;72378;52.468;13.432;2023-10-31T05:39:31;14.60;;;6.78;;
82671;SDS011;72378;52.468;13.432;2023-10-31T05:41:57;14.40;;;6.53;;
82671;SDS011;72378;52.468;13.432;2023-10-31T05:44:23;14.05;;;7.28;;
82671;SDS011;72378;52.468;13.432;2023-10-31T05:46:50;13.23;;;7.15;;
82671;SDS011;72378;52.468;13.432;2023-10-31T05:49:16;14.80;;;7.10;;
82671;SDS011;72378;52.468;13.432;2023-10-31T05:51:43;15.35;;;7.10;;
82671;SDS011;72378;52.468;13.432;2023-10-31T05:54:09;15.90;;;6.68;;
82671;SDS011;72378;52.468;13.432;2023-10-31T05:56:35;13.73;;;6.22;;
82671;SDS011;72378;52.468;13.432;2023-10-31T05:59:01;12.43;;;6.65;;
82671;SDS011;72378;52.468;13.432;2023-10-31T06:01:27;11.88;;;6.15;;
82671;SDS011;72378;52.468;13.432;2023-10-31T06:06:22;11.82;;;6.03;;
82671;SDS011;72378;52.468;13.432;2023-10-31T06:08:48;11.20;;;6.28;;
82671;SDS011;72378;52.468;13.432;2023-10-31T06:11:14;12.80;;;6.40;;
82671;SDS011;72378;52.468;13.432;2023-10-31T06:13:40;14.20;;;6.43;;
82671;SDS011;72378;52.468;13.432;2023-10-31T06:16:07;12.27;;;6.45;;
82671;SDS011;72378;52.468;13.432;2023-10-31T06:18:33;11.32;;;5.97;;
82671;SDS011;72378;52.468;13.432;2023-10-31T06:21:00;11.88;;;5.55;;
82671;SDS011;72378;52.468;13.432;2023-10-31T06:23:27;11.20;;;6.50;;
82671;SDS011;72378;52.468;13.432;2023-10-31T06:25:53;10.10;;;5.10;;
82671;SDS011;72378;52.468;13.432;2023-10-31T06:28:19;10.18;;;5.47;;
82671;SDS011;72378;52.468;13.432;2023-10-31T06:30:46;10.07;;;5.30;;
82671;SDS011;72378;52.468;13.432;2023-10-31T06:33:12;13.23;;;6.20;;
82671;SDS011;72378;52.468;13.432;2023-10-31T06:35:38;9.48;;;5.10;;
82671;SDS011;72378;52.468;13.432;2023-10-31T06:38:04;11.77;;;5.18;;
82671;SDS011;72378;52.468;13.432;2023-10-31T06:40:32;9.38;;;5.00;;
82671;SDS011;72378;52.468;13.432;2023-10-31T06:42:58;10.55;;;5.00;;
82671;SDS011;72378;52.468;13.432;2023-10-31T06:47:51;9.38;;;5.18;;
82671;SDS011;72378;52.468;13.432;2023-10-31T06:50:17;8.43;;;4.53;;
82671;SDS011;72378;52.468;13.432;2023-10-31T06:52:43;9.10;;;4.93;;
82671;SDS011;72378;52.468;13.432;2023-10-31T06:55:09;9.52;;;5.20;;
82671;SDS011;72378;52.468;13.432;2023-10-31T06:57:37;10.50;;;5.35;;
82671;SDS011;72378;52.468;13.432;2023-10-31T07:00:04;12.02;;;4.65;;
82671;SDS011;72378;52.468;13.432;2023-10-31T07:02:33;9.73;;;5.00;;
82671;SDS011;72378;52.468;13.432;2023-10-31T07:05:00;8.75;;;4.13;;
82671;SDS011;72378;52.468;13.432;2023-10-31T07:07:26;10.43;;;4.35;;
82671;SDS011;72378;52.468;13.432;2023-10-31T07:09:52;7.85;;;4.10;;
82671;SDS011;72378;52.468;13.432;2023-10-31T07:12:18;8.38;;;4.10;;
82671;SDS011;72378;52.468;13.432;2023-10-31T07:14:45;8.07;;;4.10;;
82671;SDS011;72378;52.468;13.432;2023-10-31T07:17:12;8.52;;;4.05;;
82671;SDS011;72378;52.468;13.432;2023-10-31T07:19:38;9.52;;;4.68;;
82671;SDS011;72378;52.468;13.432;2023-10-31T07:22:04;10.18;;;4.45;;
82671;SDS011;72378;52.468;13.432;2023-10-31T07:24:30;8.23;;;4.00;;
82671;SDS011;72378;52.468;13.432;2023-10-31T07:26:57;9.05;;;4.00;;
82671;SDS011;72378;52.468;13.432;2023-10-31T07:29:23;8.10;;;3.60;;
82671;SDS011;72378;52.468;13.432;2023-10-31T07:31:50;9.05;;;3.40;;
82671;SDS011;72378;52.468;13.432;2023-10-31T07:34:16;9.10;;;3.20;;
82671;SDS011;72378;52.468;13.432;2023-10-31T07:36:43;7.53;;;2.55;;
82671;SDS011;72378;52.468;13.432;2023-10-31T07:39:09;5.45;;;2.40;;
82671;SDS011;72378;52.468;13.432;2023-10-31T07:41:35;5.82;;;2.25;;
82671;SDS011;72378;52.468;13.432;2023-10-31T07:44:01;6.07;;;1.85;;
82671;SDS011;72378;52.468;13.432;2023-10-31T07:46:27;4.53;;;1.73;;
82671;SDS011;72378;52.468;13.432;2023-10-31T07:48:55;7.13;;;1.80;;
82671;SDS011;72378;52.468;13.432;2023-10-31T07:51:21;4.97;;;1.40;;
82671;SDS011;72378;52.468;13.432;2023-10-31T07:53:47;4.22;;;1.52;;
82671;SDS011;72378;52.468;13.432;2023-10-31T07:56:17;3.22;;;1.40;;
82671;SDS011;72378;52.468;13.432;2023-10-31T07:58:47;4.88;;;1.27;;
82671;SDS011;72378;52.468;13.432;2023-10-31T08:01:13;3.95;;;1.40;;
82671;SDS011;72378;52.468;13.432;2023-10-31T08:03:40;4.10;;;1.50;;
82671;SDS011;72378;52.468;13.432;2023-10-31T08:06:07;3.63;;;1.30;;
82671;SDS011;72378;52.468;13.432;2023-10-31T08:08:33;3.60;;;1.33;;
82671;SDS011;72378;52.468;13.432;2023-10-31T08:11:00;4.63;;;1.42;;
82671;SDS011;72378;52.468;13.432;2023-10-31T08:13:26;3.85;;;1.30;;
82671;SDS011;72378;52.468;13.432;2023-10-31T08:15:52;3.92;;;1.25;;
82671;SDS011;72378;52.468;13.432;2023-10-31T08:18:19;6.45;;;1.88;;
82671;SDS011;72378;52.468;13.432;2023-10-31T08:20:45;6.95;;;2.30;;
82671;SDS011;72378;52.468;13.432;2023-10-31T08:23:15;3.33;;;1.35;;
82671;SDS011;72378;52.468;13.432;2023-10-31T08:25:41;3.92;;;1.65;;
82671;SDS011;72378;52.468;13.432;2023-10-31T08:28:07;4.18;;;1.20;;
82671;SDS011;72378;52.468;13.432;2023-10-31T08:30:34;2.58;;;1.10;;
82671;SDS011;72378;52.468;13.432;2023-10-31T08:33:00;3.15;;;1.20;;
82671;SDS011;72378;52.468;13.432;2023-10-31T08:35:26;4.07;;;1.48;;
82671;SDS011;72378;52.468;13.432;2023-10-31T08:37:53;4.88;;;1.52;;
82671;SDS011;72378;52.468;13.432;2023-10-31T08:40:20;4.45;;;1.40;;
82671;SDS011;72378;52.468;13.432;2023-10-31T08:42:46;2.20;;;0.85;;
82671;SDS011;72378;52.468;13.432;2023-10-31T08:45:13;4.57;;;1.00;;
82671;SDS011;72378;52.468;13.432;2023-10-31T08:47:39;2.53;;;0.90;;
82671;SDS011;72378;52.468;13.432;2023-10-31T08:50:05;3.78;;;1.40;;
82671;SDS011;72378;52.468;13.432;2023-10-31T08:52:33;3.15;;;1.00;;
82671;SDS011;72378;52.468;13.432;2023-10-31T08:54:59;2.97;;;1.00;;
82671;SDS011;72378;52.468;13.432;2023-10-31T08:57:27;2.85;;;1.00;;
82671;SDS011;72378;52.468;13.432;2023-10-31T08:59:53;3.38;;;1.20;;
82671;SDS011;72378;52.468;13.432;2023-10-31T09:02:19;2.58;;;1.00;;
82671;SDS011;72378;52.468;13.432;2023-10-31T09:04:45;2.30;;;1.00;;
82671;SDS011;72378;52.468;13.432;2023-10-31T09:07:11;1.90;;;0.80;;
82671;SDS011;72378;52.468;13.432;2023-10-31T09:09:37;1.85;;;0.90;;
82671;SDS011;72378;52.468;13.432;2023-10-31T09:12:04;2.03;;;0.88;;
82671;SDS011;72378;52.468;13.432;2023-10-31T09:14:31;1.67;;;0.70;;
82671;SDS011;72378;52.468;13.432;2023-10-31T09:16:57;3.03;;;0.80;;
82671;SDS011;72378;52.468;13.432;2023-10-31T09:19:23;3.13;;;0.90;;
82671;SDS011;72378;52.468;13.432;2023-10-31T09:21:50;3.42;;;0.98;;
82671;SDS011;72378;52.468;13.432;2023-10-31T09:24:16;1.58;;;0.70;;
82671;SDS011;72378;52.468;13.432;2023-10-31T09:26:42;3.70;;;0.98;;
82671;SDS011;72378;52.468;13.432;2023-10-31T09:29:09;2.40;;;0.90;;
82671;SDS011;72378;52.468;13.432;2023-10-31T09:31:37;2.63;;;0.75;;
82671;SDS011;72378;52.468;13.432;2023-10-31T09:34:03;3.88;;;1.10;;
82671;SDS011;72378;52.468;13.432;2023-10-31T09:36:31;1.85;;;0.70;;
82671;SDS011;72378;52.468;13.432;2023-10-31T09:38:59;1.75;;;0.85;;
82671;SDS011;72378;52.468;13.432;2023-10-31T09:41:25;2.78;;;1.00;;
82671;SDS011;72378;52.468;13.432;2023-10-31T09:46:18;4.30;;;1.10;;
82671;SDS011;72378;52.468;13.432;2023-10-31T09:48:45;2.65;;;1.00;;
82671;SDS011;72378;52.468;13.432;2023-10-31T09:51:12;3.45;;;1.00;;
82671;SDS011;72378;52.468;13.432;2023-10-31T09:53:38;2.58;;;1.10;;
82671;SDS011;72378;52.468;13.432;2023-10-31T09:56:07;2.40;;;1.00;;
82671;SDS011;72378;52.468;13.432;2023-10-31T09:58:33;4.65;;;1.20;;
82671;SDS011;72378;52.468;13.432;2023-10-31T10:00:59;4.50;;;1.40;;
82671;SDS011;72378;52.468;13.432;2023-10-31T10:03:25;5.45;;;1.98;;
82671;SDS011;72378;52.468;13.432;2023-10-31T10:05:53;5.00;;;1.33;;
82671;SDS011;72378;52.468;13.432;2023-10-31T10:08:19;2.90;;;1.05;;
82671;SDS011;72378;52.468;13.432;2023-10-31T10:10:46;1.98;;;0.90;;
82671;SDS011;72378;52.468;13.432;2023-10-31T10:13:12;2.80;;;0.88;;
82671;SDS011;72378;52.468;13.432;2023-10-31T10:15:44;3.05;;;1.10;;
82671;SDS011;72378;52.468;13.432;2023-10-31T10:18:23;2.05;;;1.00;;
82671;SDS011;72378;52.468;13.432;2023-10-31T10:20:55;3.17;;;1.10;;
82671;SDS011;72378;52.468;13.432;2023-10-31T10:23:21;2.67;;;1.10;;
82671;SDS011;72378;52.468;13.432;2023-10-31T10:25:48;4.90;;;1.10;;
82671;SDS011;72378;52.468;13.432;2023-10-31T10:28:14;2.88;;;1.13;;
82671;SDS011;72378;52.468;13.432;2023-10-31T10:30:40;2.65;;;1.00;;
82671;SDS011;72378;52.468;13.432;2023-10-31T10:33:06;3.60;;;1.20;;
82671;SDS011;72378;52.468;13.432;2023-10-31T10:35:33;5.88;;;1.30;;
82671;SDS011;72378;52.468;13.432;2023-10-31T10:38:01;4.15;;;1.42;;
82671;SDS011;72378;52.468;13.432;2023-10-31T10:40:29;4.22;;;1.15;;
82671;SDS011;72378;52.468;13.432;2023-10-31T10:42:55;3.83;;;1.20;;
82671;SDS011;72378;52.468;13.432;2023-10-31T10:45:25;4.05;;;1.30;;
82671;SDS011;72378;52.468;13.432;2023-10-31T10:47:51;3.58;;;1.73;;
82671;SDS011;72378;52.468;13.432;2023-10-31T10:50:18;4.43;;;1.27;;
82671;SDS011;72378;52.468;13.432;2023-10-31T10:52:47;3.88;;;1.33;;
82671;SDS011;72378;52.468;13.432;2023-10-31T10:55:18;2.58;;;1.17;;
82671;SDS011;72378;52.468;13.432;2023-10-31T10:57:48;4.10;;;1.27;;
82671;SDS011;72378;52.468;13.432;2023-10-31T11:00:16;5.22;;;1.58;;
82671;SDS011;72378;52.468;13.432;2023-10-31T11:02:44;3.92;;;1.35;;
82671;SDS011;72378;52.468;13.432;2023-10-31T11:05:11;5.63;;;1.90;;
82671;SDS011;72378;52.468;13.432;2023-10-31T11:07:39;4.97;;;1.52;;
82671;SDS011;72378;52.468;13.432;2023-10-31T11:10:06;3.55;;;1.48;;
82671;SDS011;72378;52.468;13.432;2023-10-31T11:15:00;5.40;;;1.40;;
82671;SDS011;72378;52.468;13.432;2023-10-31T11:17:28;4.95;;;1.42;;
82671;SDS011;72378;52.468;13.432;2023-10-31T11:19:54;4.88;;;1.65;;
82671;SDS011;72378;52.468;13.432;2023-10-31T11:24:47;3.60;;;1.23;;
82671;SDS011;72378;52.468;13.432;2023-10-31T11:27:14;4.45;;;1.27;;
82671;SDS011;72378;52.468;13.432;2023-10-31T11:29:42;6.07;;;1.50;;
82671;SDS011;72378;52.468;13.432;2023-10-31T11:32:09;4.35;;;1.90;;
82671;SDS011;72378;52.468;13.432;2023-10-31T11:34:36;4.55;;;1.50;;
82671;SDS011;72378;52.468;13.432;2023-10-31T11:37:18;5.93;;;1.73;;
82671;SDS011;72378;52.468;13.432;2023-10-31T11:39:56;7.75;;;3.92;;
82671;SDS011;72378;52.468;13.432;2023-10-31T11:42:40;3.80;;;1.52;;
82671;SDS011;72378;52.468;13.432;2023-10-31T11:47:46;4.25;;;1.30;;
82671;SDS011;72378;52.468;13.432;2023-10-31T11:50:12;5.63;;;2.38;;
82671;SDS011;72378;52.468;13.432;2023-10-31T11:52:38;3.47;;;1.30;;
82671;SDS011;72378;52.468;13.432;2023-10-31T11:55:05;3.08;;;1.23;;
82671;SDS011;72378;52.468;13.432;2023-10-31T11:57:34;5.13;;;1.42;;
82671;SDS011;72378;52.468;13.432;2023-10-31T12:00:00;3.63;;;1.15;;
82671;SDS011;72378;52.468;13.432;2023-10-31T12:02:27;3.03;;;1.10;;
82671;SDS011;72378;52.468;13.432;2023-10-31T12:05:07;3.08;;;1.13;;
82671;SDS011;72378;52.468;13.432;2023-10-31T12:07:40;3.13;;;1.00;;
82671;SDS011;72378;52.468;13.432;2023-10-31T12:10:07;5.20;;;1.52;;
82671;SDS011;72378;52.468;13.432;2023-10-31T12:12:34;4.13;;;1.65;;
82671;SDS011;72378;52.468;13.432;2023-10-31T12:15:04;3.33;;;1.20;;
82671;SDS011;72378;52.468;13.432;2023-10-31T12:17:31;8.20;;;2.45;;
82671;SDS011;72378;52.468;13.432;2023-10-31T12:19:57;3.00;;;1.23;;
82671;SDS011;72378;52.468;13.432;2023-10-31T12:22:25;5.53;;;1.75;;
82671;SDS011;72378;52.468;13.432;2023-10-31T12:24:51;5.75;;;2.10;;
82671;SDS011;72378;52.468;13.432;2023-10-31T12:27:25;5.55;;;1.50;;
82671;SDS011;72378;52.468;13.432;2023-10-31T12:29:59;4.55;;;1.58;;
82671;SDS011;72378;52.468;13.432;2023-10-31T12:32:25;4.00;;;1.50;;
82671;SDS011;72378;52.468;13.432;2023-10-31T12:34:52;5.53;;;2.00;;
82671;SDS011;72378;52.468;13.432;2023-10-31T12:37:18;6.07;;;1.70;;
82671;SDS011;72378;52.468;13.432;2023-10-31T12:39:45;4.93;;;1.40;;
82671;SDS011;72378;52.468;13.432;2023-10-31T12:42:14;5.18;;;1.42;;
82671;SDS011;72378;52.468;13.432;2023-10-31T12:44:41;6.90;;;2.00;;
82671;SDS011;72378;52.468;13.432;2023-10-31T12:47:07;3.83;;;1.42;;
82671;SDS011;72378;52.468;13.432;2023-10-31T12:49:33;4.72;;;1.38;;
82671;SDS011;72378;52.468;13.432;2023-10-31T12:52:00;5.45;;;1.60;;
82671;SDS011;72378;52.468;13.432;2023-10-31T12:54:29;5.65;;;1.30;;
82671;SDS011;72378;52.468;13.432;2023-10-31T12:56:59;3.90;;;1.30;;
82671;SDS011;72378;52.468;13.432;2023-10-31T12:59:26;2.88;;;1.10;;
82671;SDS011;72378;52.468;13.432;2023-10-31T13:01:52;3.53;;;1.15;;
82671;SDS011;72378;52.468;13.432;2023-10-31T13:04:23;6.00;;;1.92;;
82671;SDS011;72378;52.468;13.432;2023-10-31T13:06:54;5.45;;;1.60;;
82671;SDS011;72378;52.468;13.432;2023-10-31T13:09:20;5.88;;;1.40;;
82671;SDS011;72378;52.468;13.432;2023-10-31T13:11:46;3.85;;;1.05;;
82671;SDS011;72378;52.468;13.432;2023-10-31T13:14:14;4.90;;;1.45;;
82671;SDS011;72378;52.468;13.432;2023-10-31T13:16:40;2.72;;;1.00;;
82671;SDS011;72378;52.468;13.432;2023-10-31T13:19:06;3.03;;;1.00;;
82671;SDS011;72378;52.468;13.432;2023-10-31T13:21:32;2.70;;;0.90;;
82671;SDS011;72378;52.468;13.432;2023-10-31T13:23:59;5.38;;;1.60;;
82671;SDS011;72378;52.468;13.432;2023-10-31T13:26:25;3.53;;;1.20;;
82671;SDS011;72378;52.468;13.432;2023-10-31T13:28:51;1.55;;;0.63;;
82671;SDS011;72378;52.468;13.432;2023-10-31T13:31:19;2.90;;;1.05;;
82671;SDS011;72378;52.468;13.432;2023-10-31T13:33:45;2.47;;;1.00;;
82671;SDS011;72378;52.468;13.432;2023-10-31T13:36:11;2.78;;;1.00;;
82671;SDS011;72378;52.468;13.432;2023-10-31T13:38:38;2.80;;;0.90;;
82671;SDS011;72378;52.468;13.432;2023-10-31T13:43:30;7.20;;;1.50;;
82671;SDS011;72378;52.468;13.432;2023-10-31T13:45:56;2.55;;;0.80;;
82671;SDS011;72378;52.468;13.432;2023-10-31T13:48:24;3.80;;;1.00;;
82671;SDS011;72378;52.468;13.432;2023-10-31T13:50:51;2.97;;;0.80;;
82671;SDS011;72378;52.468;13.432;2023-10-31T13:53:17;3.00;;;1.00;;
82671;SDS011;72378;52.468;13.432;2023-10-31T13:55:43;3.78;;;1.48;;
82671;SDS011;72378;52.468;13.432;2023-10-31T13:58:09;1.42;;;0.70;;
82671;SDS011;72378;52.468;13.432;2023-10-31T14:00:36;3.13;;;0.90;;
82671;SDS011;72378;52.468;13.432;2023-10-31T14:03:02;3.80;;;1.15;;
82671;SDS011;72378;52.468;13.432;2023-10-31T14:05:29;6.45;;;1.85;;
82671;SDS011;72378;52.468;13.432;2023-10-31T14:07:56;2.60;;;1.00;;
82671;SDS011;72378;52.468;13.432;2023-10-31T14:10:22;1.67;;;0.80;;
82671;SDS011;72378;52.468;13.432;2023-10-31T14:12:49;2.90;;;1.10;;
82671;SDS011;72378;52.468;13.432;2023-10-31T14:15:15;3.67;;;1.00;;
82671;SDS011;72378;52.468;13.432;2023-10-31T14:17:42;2.30;;;1.00;;
82671;SDS011;72378;52.468;13.432;2023-10-31T14:20:09;1.92;;;0.68;;
82671;SDS011;72378;52.468;13.432;2023-10-31T14:22:37;1.60;;;0.63;;
82671;SDS011;72378;52.468;13.432;2023-10-31T14:25:04;2.35;;;0.80;;
82671;SDS011;72378;52.468;13.432;2023-10-31T14:27:32;2.70;;;0.73;;
82671;SDS011;72378;52.468;13.432;2023-10-31T14:29:58;8.30;;;2.13;;
82671;SDS011;72378;52.468;13.432;2023-10-31T14:32:24;4.18;;;1.35;;
82671;SDS011;72378;52.468;13.432;2023-10-31T14:34:51;3.90;;;1.27;;
82671;SDS011;72378;52.468;13.432;2023-10-31T14:37:17;2.20;;;0.77;;
82671;SDS011;72378;52.468;13.432;2023-10-31T14:39:44;4.22;;;1.10;;
82671;SDS011;72378;52.468;13.432;2023-10-31T14:42:10;2.30;;;0.80;;
82671;SDS011;72378;52.468;13.432;2023-10-31T14:44:37;3.55;;;1.20;;
82671;SDS011;72378;52.468;13.432;2023-10-31T14:47:03;6.68;;;2.05;;